createdAt,value
2022-11-05T00:01:39.464Z,17.27
2022-11-05T00:04:31.059Z,17.14
2022-11-05T00:07:26.695Z,17.10
2022-11-05T00:10:03.658Z,17.23
2022-11-05T00:12:53.577Z,17.10
2022-11-05T00:15:44.478Z,17.01
2022-11-05T00:18:19.527Z,16.94
2022-11-05T00:20:52.286Z,16.91
2022-11-05T00:23:43.869Z,16.89
2022-11-05T00:26:16.597Z,17.03
2022-11-05T00:28:50.192Z,17.06
2022-11-05T00:31:24.941Z,16.85
2022-11-05T00:33:57.309Z,16.72
2022-11-05T00:36:30.484Z,16.60
2022-11-05T00:39:04.000Z,16.46
2022-11-05T00:41:37.488Z,16.39
2022-11-05T00:44:27.364Z,16.39
2022-11-05T00:47:14.177Z,16.28
2022-11-05T00:49:46.691Z,16.12
2022-11-05T00:52:37.155Z,16.03
2022-11-05T00:55:10.518Z,16.01
2022-11-05T00:57:42.912Z,15.97
2022-11-05T01:00:17.704Z,15.95
2022-11-05T01:02:50.458Z,15.89
2022-11-05T01:05:23.140Z,15.84
2022-11-05T01:07:58.003Z,15.83
2022-11-05T01:10:30.108Z,15.81
2022-11-05T01:13:07.597Z,15.78
2022-11-05T01:15:44.563Z,15.72
2022-11-05T01:18:17.159Z,15.70
2022-11-05T01:20:49.847Z,15.67
2022-11-05T01:23:23.009Z,15.63
2022-11-05T01:25:55.529Z,15.60
2022-11-05T01:28:31.963Z,15.59
2022-11-05T01:31:05.279Z,15.53
2022-11-05T01:33:37.635Z,15.55
2022-11-05T01:36:11.394Z,15.59
2022-11-05T01:38:43.828Z,15.60
2022-11-05T01:41:16.676Z,15.34
2022-11-05T01:43:54.569Z,15.26
2022-11-05T01:46:32.186Z,15.18
2022-11-05T01:49:12.596Z,15.17
2022-11-05T01:51:46.223Z,15.17
2022-11-05T01:54:21.782Z,15.15
2022-11-05T01:56:56.739Z,15.15
2022-11-05T01:59:31.218Z,15.14
2022-11-05T02:02:04.253Z,15.05
2022-11-05T02:04:40.322Z,15.06
2022-11-05T02:07:13.370Z,15.02
2022-11-05T02:09:51.997Z,15.00
2022-11-05T02:12:24.713Z,14.96
2022-11-05T02:14:59.524Z,14.95
2022-11-05T02:17:41.497Z,15.05
2022-11-05T02:20:36.600Z,14.95
2022-11-05T02:23:36.354Z,14.91
2022-11-05T02:26:31.105Z,14.89
2022-11-05T02:29:38.079Z,14.84
2022-11-05T02:32:16.150Z,14.77
2022-11-05T02:34:55.897Z,14.74
2022-11-05T02:37:39.242Z,14.74
2022-11-05T02:40:17.761Z,14.83
2022-11-05T02:43:00.338Z,14.71
2022-11-05T02:45:40.174Z,14.71
2022-11-05T02:48:19.965Z,14.76
2022-11-05T02:50:57.235Z,14.92
2022-11-05T02:53:35.381Z,14.89
2022-11-05T02:56:10.512Z,14.73
2022-11-05T02:58:43.054Z,14.69
2022-11-05T03:01:17.296Z,14.68
2022-11-05T03:03:54.452Z,14.68
2022-11-05T03:06:51.138Z,14.67
2022-11-05T03:09:41.893Z,14.87
2022-11-05T03:12:23.099Z,14.85
2022-11-05T03:15:02.580Z,14.84
2022-11-05T03:17:39.600Z,14.88
2022-11-05T03:20:17.322Z,14.89
2022-11-05T03:22:55.269Z,14.92
2022-11-05T03:25:29.423Z,14.98
2022-11-05T03:28:06.909Z,15.04
2022-11-05T03:30:40.727Z,15.03
2022-11-05T03:33:21.286Z,15.04
2022-11-05T03:35:55.734Z,15.06
2022-11-05T03:38:33.708Z,15.08
2022-11-05T03:41:11.921Z,15.12
2022-11-05T03:43:48.489Z,15.20
2022-11-05T03:46:26.479Z,15.24
2022-11-05T03:49:03.211Z,15.28
2022-11-05T03:51:45.292Z,15.27
2022-11-05T03:54:18.585Z,15.23
2022-11-05T03:57:02.558Z,15.19
2022-11-05T03:59:42.697Z,14.98
2022-11-05T04:02:19.910Z,14.94
2022-11-05T04:04:52.245Z,14.89
2022-11-05T04:07:42.664Z,14.86
2022-11-05T04:10:33.901Z,14.83
2022-11-05T04:13:29.170Z,14.78
2022-11-05T04:16:20.896Z,14.75
2022-11-05T04:18:53.973Z,14.71
2022-11-05T04:21:57.870Z,14.65
2022-11-05T04:24:30.628Z,14.60
2022-11-05T04:27:02.829Z,14.56
2022-11-05T04:30:02.725Z,14.53
2022-11-05T04:32:35.739Z,14.52
2022-11-05T04:35:08.903Z,14.50
2022-11-05T04:37:42.180Z,14.59
2022-11-05T04:40:14.890Z,14.50
2022-11-05T04:42:48.657Z,14.52
2022-11-05T04:45:22.143Z,14.66
2022-11-05T04:47:56.317Z,14.69
2022-11-05T04:50:29.332Z,14.49
2022-11-05T04:53:01.870Z,14.45
2022-11-05T04:55:34.415Z,14.49
2022-11-05T04:58:08.604Z,14.53
2022-11-05T05:00:41.370Z,14.50
2022-11-05T05:03:14.388Z,14.52
2022-11-05T05:05:46.939Z,14.69
2022-11-05T05:08:20.617Z,14.50
2022-11-05T05:10:54.170Z,14.64
2022-11-05T05:13:26.919Z,14.57
2022-11-05T05:16:01.270Z,14.61
2022-11-05T05:18:35.912Z,14.64
2022-11-05T05:21:28.025Z,14.77
2022-11-05T05:24:00.169Z,14.61
2022-11-05T05:26:39.812Z,14.57
2022-11-05T05:29:12.866Z,14.58
2022-11-05T05:31:46.679Z,14.69
2022-11-05T05:34:18.832Z,14.45
2022-11-05T05:36:51.958Z,14.55
2022-11-05T05:39:26.095Z,14.40
2022-11-05T05:41:59.454Z,14.47
2022-11-05T05:44:31.399Z,14.48
2022-11-05T05:47:07.717Z,14.47
2022-11-05T05:49:41.386Z,14.47
2022-11-05T05:52:14.539Z,14.39
2022-11-05T05:54:47.060Z,14.22
2022-11-05T05:57:19.960Z,14.24
2022-11-05T05:59:53.745Z,14.29
2022-11-05T06:02:27.050Z,14.38
2022-11-05T06:05:00.007Z,14.26
2022-11-05T06:07:37.305Z,14.24
2022-11-05T06:10:12.816Z,14.26
2022-11-05T06:12:47.717Z,14.23
2022-11-05T06:15:21.518Z,14.19
2022-11-05T06:17:56.639Z,14.19
2022-11-05T06:20:31.005Z,14.21
2022-11-05T06:23:03.731Z,14.25
2022-11-05T06:25:41.239Z,14.30
2022-11-05T06:28:14.341Z,14.33
2022-11-05T06:30:46.395Z,14.44
2022-11-05T06:33:19.839Z,14.38
2022-11-05T06:35:52.458Z,14.45
2022-11-05T06:38:25.449Z,14.65
2022-11-05T06:41:03.310Z,14.70
2022-11-05T06:43:44.117Z,14.57
2022-11-05T06:46:16.248Z,14.59
2022-11-05T06:48:48.920Z,14.49
2022-11-05T06:51:22.085Z,14.46
2022-11-05T06:53:57.399Z,14.49
2022-11-05T06:56:29.692Z,14.63
2022-11-05T06:59:06.793Z,14.61
2022-11-05T07:01:40.981Z,14.65
2022-11-05T07:04:15.845Z,14.65
2022-11-05T07:06:47.998Z,14.74
2022-11-05T07:09:22.109Z,14.79
2022-11-05T07:11:54.719Z,14.80
2022-11-05T07:14:28.865Z,14.61
2022-11-05T07:17:02.179Z,14.55
2022-11-05T07:19:35.290Z,14.61
2022-11-05T07:22:11.912Z,14.66
2022-11-05T07:24:47.267Z,14.63
2022-11-05T07:27:20.492Z,14.86
2022-11-05T07:29:54.377Z,14.74
2022-11-05T07:32:28.738Z,14.74
2022-11-05T07:35:03.091Z,14.71
2022-11-05T07:37:45.673Z,14.69
2022-11-05T07:40:23.063Z,14.82
2022-11-05T07:42:57.035Z,14.73
2022-11-05T07:45:30.881Z,14.75
2022-11-05T07:48:07.788Z,14.74
2022-11-05T07:50:42.479Z,14.73
2022-11-05T07:53:17.062Z,14.70
2022-11-05T07:56:14.068Z,14.72
2022-11-05T07:58:50.328Z,14.70
2022-11-05T08:01:46.806Z,14.88
2022-11-05T08:04:50.681Z,15.01
2022-11-05T08:07:27.149Z,15.07
2022-11-05T08:10:05.145Z,15.06
2022-11-05T08:13:25.832Z,15.11
2022-11-05T08:16:02.667Z,15.06
2022-11-05T08:18:37.021Z,15.00
2022-11-05T08:21:10.076Z,14.98
2022-11-05T08:23:46.005Z,15.04
2022-11-05T08:26:20.904Z,15.08
2022-11-05T08:28:55.097Z,15.04
2022-11-05T09:25:15.358Z,15.22
2022-11-05T09:28:28.441Z,15.09
2022-11-05T09:31:00.783Z,15.19
2022-11-05T09:33:32.965Z,15.30
2022-11-05T09:36:05.407Z,15.35
2022-11-05T09:38:38.293Z,15.40
2022-11-05T09:41:14.689Z,15.41
2022-11-05T09:43:49.562Z,15.49
2022-11-05T09:46:23.835Z,15.56
2022-11-05T09:48:58.336Z,15.60
2022-11-05T09:51:30.286Z,15.64
2022-11-05T09:54:03.321Z,15.72
2022-11-05T09:56:37.433Z,15.74
2022-11-05T09:59:17.330Z,15.78
2022-11-05T10:01:49.413Z,15.78
2022-11-05T10:04:31.187Z,15.81
2022-11-05T10:07:06.729Z,15.80
2022-11-05T10:09:43.123Z,15.76
2022-11-05T10:12:22.575Z,15.78
2022-11-05T10:15:04.005Z,15.78
2022-11-05T10:17:39.295Z,15.82
2022-11-05T10:20:20.368Z,15.85
2022-11-05T10:22:59.915Z,15.78
2022-11-05T10:25:39.607Z,15.75
2022-11-05T10:28:16.025Z,15.77
2022-11-05T10:30:50.135Z,15.80
2022-11-05T10:33:29.405Z,15.79
2022-11-05T10:36:07.352Z,15.71
2022-11-05T10:38:42.634Z,15.69
2022-11-05T10:41:32.887Z,15.72
2022-11-05T10:44:14.754Z,15.75
2022-11-05T10:46:59.704Z,15.72
2022-11-05T10:49:44.026Z,15.73
2022-11-05T10:52:24.054Z,15.74
2022-11-05T10:55:02.293Z,15.66
2022-11-05T10:57:38.047Z,15.51
2022-11-05T11:00:32.052Z,15.42
2022-11-05T11:03:05.789Z,15.47
2022-11-05T11:05:41.060Z,15.48
2022-11-05T11:08:25.428Z,15.48
2022-11-05T11:10:59.933Z,15.53
2022-11-05T11:13:52.419Z,15.57
2022-11-05T11:16:26.040Z,15.59
2022-11-05T11:19:01.201Z,15.61
2022-11-05T11:21:38.991Z,15.65
2022-11-05T11:24:23.897Z,15.72
2022-11-05T11:26:55.975Z,15.73
2022-11-05T11:29:29.911Z,15.74
2022-11-05T11:32:03.615Z,15.71
2022-11-05T11:34:37.139Z,15.71
2022-11-05T11:37:16.700Z,15.75
2022-11-05T11:39:54.430Z,15.81
2022-11-05T11:42:32.278Z,15.79
2022-11-05T11:45:09.162Z,15.80
2022-11-05T11:47:46.018Z,15.76
2022-11-05T11:50:40.139Z,15.74
2022-11-05T11:53:32.086Z,15.71
2022-11-05T11:56:19.387Z,15.73
2022-11-05T11:58:55.352Z,15.73
2022-11-05T12:01:51.952Z,15.76
2022-11-05T12:04:38.263Z,15.80
2022-11-05T12:07:22.721Z,15.77
2022-11-05T12:10:18.341Z,15.64
2022-11-05T12:13:00.255Z,15.58
2022-11-05T12:15:44.369Z,15.56
2022-11-05T12:18:27.295Z,15.60
2022-11-05T12:21:34.630Z,15.61
2022-11-05T12:24:31.905Z,15.57
2022-11-05T12:27:17.738Z,15.69
2022-11-05T12:29:57.025Z,15.73
2022-11-05T12:32:42.600Z,15.79
2022-11-05T12:35:28.478Z,15.76
2022-11-05T12:38:05.866Z,15.68
2022-11-05T12:40:48.332Z,15.68
2022-11-05T12:43:33.343Z,15.71
2022-11-05T12:46:15.674Z,15.70
2022-11-05T12:49:25.082Z,15.68
2022-11-05T12:52:11.975Z,15.73
2022-11-05T12:54:54.770Z,15.71
2022-11-05T12:57:30.361Z,15.49
2022-11-05T13:00:14.078Z,15.44
2022-11-05T13:02:55.904Z,15.47
2022-11-05T13:05:35.036Z,15.53
2022-11-05T13:08:09.300Z,15.70
2022-11-05T13:10:44.231Z,15.48
2022-11-05T13:13:25.189Z,15.34
2022-11-05T13:16:00.586Z,15.31
2022-11-05T13:18:40.161Z,15.24
2022-11-05T13:21:15.107Z,15.25
2022-11-05T13:23:53.310Z,15.31
2022-11-05T13:26:28.600Z,15.31
2022-11-05T13:29:05.722Z,15.37
2022-11-05T13:31:40.070Z,15.44
2022-11-05T13:34:14.393Z,15.45
2022-11-05T13:37:17.580Z,15.35
2022-11-05T13:39:56.870Z,15.28
2022-11-05T13:42:56.463Z,15.22
2022-11-05T13:45:46.475Z,15.12
2022-11-05T13:48:37.957Z,15.06
2022-11-05T13:51:37.694Z,15.03
2022-11-05T13:54:47.060Z,15.03
2022-11-05T13:57:32.362Z,14.97
2022-11-05T14:00:13.173Z,14.96
2022-11-05T14:02:49.741Z,15.01
2022-11-05T14:05:28.243Z,15.05
2022-11-05T14:08:03.089Z,14.82
2022-11-05T14:10:42.713Z,14.83
2022-11-05T14:13:24.400Z,14.75
2022-11-05T14:16:07.064Z,14.74
2022-11-05T14:18:46.978Z,14.77
2022-11-05T14:21:51.800Z,14.92
2022-11-05T14:24:43.404Z,14.78
2022-11-05T14:27:45.556Z,14.73
2022-11-05T14:30:46.790Z,14.78
2022-11-05T14:33:36.325Z,14.69
2022-11-05T14:36:33.768Z,14.70
2022-11-05T14:39:21.883Z,14.70
2022-11-05T14:42:05.396Z,14.76
2022-11-05T14:44:57.389Z,14.66
2022-11-05T14:47:34.486Z,14.67
2022-11-05T14:50:13.264Z,14.67
2022-11-05T14:52:54.325Z,14.64
2022-11-05T14:55:33.295Z,14.72
2022-11-05T14:58:35.614Z,14.65
2022-11-05T15:01:09.643Z,14.67
2022-11-05T15:04:08.410Z,14.69
2022-11-05T15:06:42.117Z,14.69
2022-11-05T15:09:25.113Z,14.68
2022-11-05T15:12:18.528Z,14.81
2022-11-05T15:14:58.568Z,14.84
2022-11-05T15:17:34.374Z,14.90
2022-11-05T15:20:15.964Z,15.08
2022-11-05T15:22:50.998Z,15.06
2022-11-05T15:25:27.207Z,15.00
2022-11-05T15:28:08.304Z,15.02
2022-11-05T15:30:54.838Z,15.00
2022-11-05T15:33:28.827Z,15.03
2022-11-05T15:36:25.655Z,15.04
2022-11-05T15:39:28.930Z,14.96
2022-11-05T15:41:54.559Z,14.93
2022-11-05T15:44:33.093Z,14.89
2022-11-05T15:47:20.364Z,14.87
2022-11-05T15:49:55.633Z,14.90
2022-11-05T15:52:42.462Z,14.90
2022-11-05T15:55:23.860Z,14.71
2022-11-05T15:58:01.641Z,14.65
2022-11-05T16:00:37.949Z,14.59
2022-11-05T16:03:21.075Z,14.52
2022-11-05T16:05:54.760Z,14.52
2022-11-05T16:08:28.605Z,14.57
2022-11-05T16:11:04.111Z,14.74
2022-11-05T16:13:38.443Z,14.72
2022-11-05T16:16:32.636Z,14.63
2022-11-05T16:19:25.977Z,14.61
2022-11-05T16:21:58.724Z,14.57
2022-11-05T16:24:32.025Z,14.58
2022-11-05T16:27:05.495Z,14.60
2022-11-05T16:29:42.385Z,14.61
2022-11-05T16:32:23.053Z,14.68
2022-11-05T16:35:01.169Z,14.64
2022-11-05T16:37:39.928Z,14.61
2022-11-05T16:40:19.288Z,14.54
2022-11-05T16:42:53.218Z,14.53
2022-11-05T16:45:27.032Z,14.64
2022-11-05T16:47:59.210Z,14.62
2022-11-05T16:50:36.357Z,14.65
2022-11-05T16:53:09.699Z,14.67
2022-11-05T16:55:44.948Z,14.60
2022-11-05T16:58:22.208Z,14.49
2022-11-05T17:01:05.582Z,14.46
2022-11-05T17:03:39.836Z,14.59
2022-11-05T17:06:13.613Z,14.58
2022-11-05T17:08:45.856Z,14.58
2022-11-05T17:11:21.425Z,14.52
2022-11-05T17:13:54.907Z,14.50
2022-11-05T17:16:30.981Z,14.48
2022-11-05T17:19:05.642Z,14.49
2022-11-05T17:21:38.451Z,14.48
2022-11-05T17:24:11.964Z,14.28
2022-11-05T17:26:44.230Z,14.21
2022-11-05T17:29:18.224Z,14.19
2022-11-05T17:31:51.741Z,14.31
2022-11-05T17:34:25.433Z,14.20
2022-11-05T17:36:58.230Z,14.23
2022-11-05T17:39:34.703Z,14.26
2022-11-05T17:42:08.053Z,14.33
2022-11-05T17:44:41.324Z,14.24
2022-11-05T17:47:16.423Z,14.30
2022-11-05T17:49:49.681Z,14.37
2022-11-05T17:52:26.091Z,14.41
2022-11-05T17:55:01.626Z,14.44
2022-11-05T17:57:34.413Z,14.42
2022-11-05T18:00:09.372Z,14.37
2022-11-05T18:02:44.396Z,14.59
2022-11-05T18:05:20.336Z,14.46
2022-11-05T18:07:54.297Z,14.51
2022-11-05T18:10:28.713Z,14.50
2022-11-05T18:13:02.628Z,14.48
2022-11-05T18:15:36.517Z,14.62
2022-11-05T18:18:09.294Z,14.99
2022-11-05T18:20:47.681Z,15.14
2022-11-05T18:23:22.457Z,15.43
2022-11-05T18:25:56.637Z,15.57
2022-11-05T18:28:32.311Z,15.56
2022-11-05T18:31:12.715Z,15.47
2022-11-05T18:33:49.340Z,15.42
2022-11-05T18:36:24.687Z,15.33
2022-11-05T18:38:57.857Z,15.23
2022-11-05T18:41:30.254Z,15.14
2022-11-05T18:44:03.993Z,15.00
2022-11-05T18:46:57.068Z,14.92
2022-11-05T18:49:33.269Z,14.81
2022-11-05T18:52:07.959Z,14.78
2022-11-05T18:54:42.539Z,14.72
2022-11-05T18:57:15.070Z,14.70
2022-11-05T18:59:51.396Z,14.65
2022-11-05T19:02:24.521Z,14.66
2022-11-05T19:05:27.442Z,14.65
2022-11-05T19:07:55.000Z,14.68
2022-11-05T19:10:27.093Z,14.69
2022-11-05T19:12:59.224Z,14.71
2022-11-05T19:15:35.931Z,14.70
2022-11-05T19:18:09.708Z,14.68
2022-11-05T19:20:42.277Z,14.63
2022-11-05T19:23:16.137Z,14.62
2022-11-05T19:25:48.076Z,14.69
2022-11-05T19:28:21.941Z,14.68
2022-11-05T19:30:54.876Z,14.62
2022-11-05T19:33:26.830Z,14.59
2022-11-05T19:35:59.958Z,14.57
2022-11-05T19:38:35.605Z,14.59
2022-11-05T19:41:13.959Z,14.62
2022-11-05T19:43:48.278Z,14.58
2022-11-05T19:46:22.443Z,14.53
2022-11-05T19:48:57.797Z,14.56
2022-11-05T19:51:31.448Z,14.57
2022-11-05T19:54:05.054Z,14.55
2022-11-05T19:56:38.592Z,14.59
2022-11-05T19:59:14.982Z,14.62
2022-11-05T20:01:47.224Z,14.58
2022-11-05T20:04:23.252Z,14.53
2022-11-05T20:06:56.941Z,14.49
2022-11-05T20:09:29.717Z,14.52
2022-11-05T20:12:05.835Z,14.56
2022-11-05T20:14:39.994Z,14.58
2022-11-05T20:17:12.046Z,14.56
2022-11-05T20:19:47.085Z,14.57
2022-11-05T20:22:21.134Z,14.57
2022-11-05T20:24:58.142Z,14.59
2022-11-05T20:27:38.260Z,14.51
2022-11-05T20:30:14.315Z,14.43
2022-11-05T20:32:49.731Z,14.42
2022-11-05T20:35:21.803Z,14.39
2022-11-05T20:37:55.982Z,14.34
2022-11-05T20:40:28.016Z,14.32
2022-11-05T20:42:59.946Z,14.38
2022-11-05T20:45:33.459Z,14.34
2022-11-05T20:48:11.726Z,14.33
2022-11-05T20:50:47.196Z,14.40
2022-11-05T20:53:21.618Z,14.39
2022-11-05T20:55:55.385Z,14.36
2022-11-05T20:58:31.732Z,14.30
2022-11-05T21:01:05.097Z,14.14
2022-11-05T21:03:38.204Z,14.05
2022-11-05T21:06:12.257Z,14.05
2022-11-05T21:08:47.446Z,14.11
2022-11-05T21:11:24.101Z,14.02
2022-11-05T21:14:00.917Z,14.12
2022-11-05T21:16:33.353Z,14.09
2022-11-05T21:19:07.599Z,14.20
2022-11-05T21:21:41.897Z,14.17
2022-11-05T21:24:15.553Z,14.05
2022-11-05T21:26:50.598Z,13.97
2022-11-05T21:29:24.952Z,13.92
2022-11-05T21:31:57.560Z,13.91
2022-11-05T21:34:30.395Z,13.90
2022-11-05T21:37:09.681Z,13.95
2022-11-05T21:39:44.724Z,14.05
2022-11-05T21:42:18.468Z,14.12
2022-11-05T21:44:57.805Z,14.19
2022-11-05T21:47:35.929Z,14.20
2022-11-05T21:50:10.730Z,14.19
2022-11-05T21:53:02.398Z,14.18
2022-11-05T21:55:53.133Z,14.17
2022-11-05T21:58:45.642Z,14.12
2022-11-05T22:01:19.730Z,14.05
2022-11-05T22:03:53.111Z,14.00
2022-11-05T22:06:29.401Z,14.01
2022-11-05T22:09:04.048Z,13.99
2022-11-05T22:11:39.587Z,13.93
2022-11-05T22:14:16.389Z,13.91
2022-11-05T22:16:48.940Z,13.92
2022-11-05T22:19:21.857Z,13.96
2022-11-05T22:21:56.885Z,13.93
2022-11-05T22:24:31.794Z,13.94
2022-11-05T22:27:10.338Z,13.95
2022-11-05T22:29:46.192Z,13.94
2022-11-05T22:32:22.239Z,13.89
2022-11-05T22:34:54.952Z,13.86
2022-11-05T22:37:27.869Z,13.82
2022-11-05T22:39:59.748Z,13.88
2022-11-05T22:42:34.850Z,13.94
2022-11-05T22:45:10.488Z,13.87
2022-11-05T22:47:45.256Z,13.81
2022-11-05T22:50:17.160Z,13.74
2022-11-05T22:52:51.821Z,13.70
2022-11-05T22:55:25.762Z,13.69
2022-11-05T22:57:58.458Z,13.63
2022-11-05T23:00:37.482Z,13.63
2022-11-05T23:03:11.488Z,13.62
2022-11-05T23:05:44.081Z,13.66
2022-11-05T23:08:35.469Z,13.79
2022-11-05T23:11:30.896Z,13.90
2022-11-05T23:14:03.595Z,13.96
2022-11-05T23:16:57.890Z,13.96
2022-11-05T23:19:48.071Z,13.97
2022-11-05T23:22:44.617Z,13.92
2022-11-05T23:25:18.721Z,13.93
2022-11-05T23:27:52.937Z,13.90
2022-11-05T23:30:27.114Z,13.86
2022-11-05T23:32:59.796Z,13.86
2022-11-05T23:35:55.570Z,13.83
2022-11-05T23:38:37.982Z,13.77
2022-11-05T23:41:28.842Z,13.74
2022-11-05T23:44:19.769Z,13.72
2022-11-05T23:47:10.599Z,13.70
2022-11-05T23:49:44.659Z,13.69
2022-11-05T23:52:17.425Z,13.67
2022-11-05T23:54:49.748Z,13.63
2022-11-05T23:57:22.093Z,13.63
2022-11-05T23:59:55.525Z,13.61
